Tar Heel, North Carolina
Current Conditions -  °F | °C
As of 1:55 PM on Sunday 23 Nov 2014 (Local Time) from KEYF Reporting Station
Light Rain Light Rain  
Wind Chill: 15°   Ceiling: 200
Heat Index: 15°   Visibility: 4mi
Dew Point: 15°   Wind: 6mph
Humidity: 100%   Direction: 90°E
Pressure: 30.06"   Gusts: NA
Location:  34.73°N, 78.79°W
Report Text: KEYF 231855Z AUTO 09005KT 4SM -RA OVC002 15/15 A3006 RMK AO2 P0001 T01470147
Loading
Personal Weather Stations






























Interactive Weather Map New forecast layout! Learn more

10-Day Weather Forecast

Advertisements
Track Severe Weather on mobile